createdAt,value
2023-04-28T00:00:13.958Z,1000.03
2023-04-28T00:00:35.264Z,999.93
2023-04-28T00:01:01.991Z,999.93
2023-04-28T00:01:33.188Z,999.93
2023-04-28T00:02:05.172Z,1000.03
2023-04-28T00:02:35.264Z,999.93
2023-04-28T00:02:53.293Z,999.93
2023-04-28T00:03:26.041Z,999.93
2023-04-28T00:03:43.160Z,999.83
2023-04-28T00:04:13.768Z,999.83
2023-04-28T00:04:35.342Z,999.83
2023-04-28T00:05:02.218Z,999.83
2023-04-28T00:05:33.714Z,999.83
2023-04-28T00:06:05.881Z,999.83
2023-04-28T00:06:35.814Z,999.93
2023-04-28T00:06:53.217Z,999.93
2023-04-28T00:07:25.824Z,999.93
2023-04-28T00:07:42.982Z,999.63
2023-04-28T00:08:13.138Z,999.63
2023-04-28T00:08:35.177Z,999.73
2023-04-28T00:09:02.157Z,999.73
2023-04-28T00:09:33.096Z,999.73
2023-04-28T00:10:05.671Z,999.52
2023-04-28T00:10:35.566Z,999.63
2023-04-28T00:10:54.067Z,999.63
2023-04-28T00:11:25.897Z,999.63
2023-04-28T00:11:43.033Z,999.83
2023-04-28T00:12:13.195Z,999.83
2023-04-28T00:12:35.174Z,999.73
2023-04-28T00:13:01.939Z,999.73
2023-04-28T00:13:33.692Z,999.73
2023-04-28T00:14:05.073Z,999.63
2023-04-28T00:14:35.206Z,999.73
2023-04-28T00:14:53.191Z,999.73
2023-04-28T00:15:26.186Z,999.73
2023-04-28T00:15:42.989Z,999.73
2023-04-28T00:16:13.189Z,999.73
2023-04-28T00:16:35.552Z,999.83
2023-04-28T00:17:02.005Z,999.83
2023-04-28T00:17:34.049Z,999.83
2023-04-28T00:18:05.130Z,999.83
2023-04-28T00:18:35.214Z,999.73
2023-04-28T00:18:53.161Z,999.73
2023-04-28T00:19:25.753Z,999.73
2023-04-28T00:19:43.012Z,999.73
2023-04-28T00:20:13.417Z,999.73
2023-04-28T00:20:35.186Z,999.52
2023-04-28T00:21:01.969Z,999.52
2023-04-28T00:21:33.091Z,999.52
2023-04-28T00:22:05.273Z,999.32
2023-04-28T00:22:35.663Z,999.63
2023-04-28T00:22:53.428Z,999.63
2023-04-28T00:23:25.878Z,999.63
2023-04-28T00:23:43.373Z,999.73
2023-04-28T00:24:13.251Z,999.73
2023-04-28T00:24:35.190Z,999.52
2023-04-28T00:25:02.526Z,999.52
2023-04-28T00:25:33.119Z,999.52
2023-04-28T00:26:05.286Z,999.63
2023-04-28T00:26:35.203Z,999.52
2023-04-28T00:26:53.193Z,999.52
2023-04-28T00:27:25.824Z,999.52
2023-04-28T00:27:42.975Z,999.42
2023-04-28T00:28:16.093Z,999.42
2023-04-28T00:28:35.249Z,999.83
2023-04-28T00:29:01.818Z,999.83
2023-04-28T00:29:33.127Z,999.83
2023-04-28T00:30:05.339Z,999.63
2023-04-28T00:30:35.732Z,999.52
2023-04-28T00:30:53.372Z,999.52
2023-04-28T00:31:25.893Z,999.52
2023-04-28T00:31:43.076Z,999.63
2023-04-28T00:32:13.224Z,999.63
2023-04-28T00:32:35.291Z,999.63
2023-04-28T00:33:02.117Z,999.63
2023-04-28T00:33:33.172Z,999.63
2023-04-28T00:34:05.227Z,999.63
2023-04-28T00:34:35.216Z,999.63
2023-04-28T00:34:53.536Z,999.63
2023-04-28T00:35:37.816Z,999.63
2023-04-28T00:35:57.168Z,999.63
2023-04-28T00:36:29.148Z,999.63
2023-04-28T00:37:01.128Z,999.42
2023-04-28T00:37:33.088Z,999.42
2023-04-28T00:38:05.101Z,999.52
2023-04-28T00:38:35.289Z,999.32
2023-04-28T00:38:54.021Z,999.32
2023-04-28T00:39:25.195Z,999.32
2023-04-28T00:39:42.205Z,999.52
2023-04-28T00:40:14.257Z,999.52
2023-04-28T00:40:35.198Z,999.42
2023-04-28T00:41:01.219Z,999.42
2023-04-28T00:41:33.114Z,999.42
2023-04-28T00:42:05.188Z,999.52
2023-04-28T00:42:35.211Z,999.52
2023-04-28T00:42:53.631Z,999.52
2023-04-28T00:43:25.790Z,999.52
2023-04-28T00:43:42.977Z,999.42
2023-04-28T00:44:13.404Z,999.42
2023-04-28T00:44:35.238Z,999.22
2023-04-28T00:45:02.236Z,999.22
2023-04-28T00:45:33.137Z,999.22
2023-04-28T00:46:05.136Z,999.52
2023-04-28T00:46:35.599Z,999.52
2023-04-28T00:46:53.229Z,999.52
2023-04-28T00:47:25.828Z,999.52
2023-04-28T00:47:43.060Z,999.63
2023-04-28T00:48:13.187Z,999.63
2023-04-28T00:48:35.352Z,999.32
2023-04-28T00:49:01.816Z,999.32
2023-04-28T00:49:33.178Z,999.32
2023-04-28T00:50:06.159Z,999.32
2023-04-28T00:50:35.181Z,999.52
2023-04-28T00:50:53.734Z,999.52
2023-04-28T00:51:25.094Z,999.52
2023-04-28T00:51:42.236Z,999.12
2023-04-28T00:52:13.998Z,999.12
2023-04-28T00:52:35.197Z,999.42
2023-04-28T00:53:01.190Z,999.42
2023-04-28T00:53:33.887Z,999.42
2023-04-28T00:54:05.141Z,999.42
2023-04-28T00:54:35.605Z,999.42
2023-04-28T00:54:54.029Z,999.42
2023-04-28T00:55:25.373Z,999.42
2023-04-28T00:55:42.331Z,999.32
2023-04-28T00:56:14.124Z,999.32
2023-04-28T00:56:35.839Z,999.42
2023-04-28T00:57:01.253Z,999.42
2023-04-28T00:57:33.909Z,999.42
2023-04-28T00:58:05.174Z,999.42
2023-04-28T00:58:35.280Z,999.42
2023-04-28T00:58:53.980Z,999.42
2023-04-28T00:59:25.212Z,999.42
2023-04-28T00:59:42.314Z,999.32
2023-04-28T01:00:15.095Z,999.32
2023-04-28T01:00:35.231Z,999.32
2023-04-28T01:01:01.274Z,999.32
2023-04-28T01:01:33.950Z,999.32
2023-04-28T01:02:05.246Z,999.42
2023-04-28T01:02:35.558Z,999.22
2023-04-28T01:03:14.139Z,999.22
2023-04-28T01:03:35.435Z,999.42
2023-04-28T01:03:57.381Z,999.42
2023-04-28T01:04:29.566Z,999.42
2023-04-28T01:05:01.374Z,999.32
2023-04-28T01:05:33.212Z,999.32
2023-04-28T01:06:05.126Z,999.42
2023-04-28T01:06:36.419Z,999.32
2023-04-28T01:06:53.667Z,999.32
2023-04-28T01:07:25.159Z,999.32
2023-04-28T01:07:42.292Z,999.22
2023-04-28T01:08:13.699Z,999.22
2023-04-28T01:08:36.152Z,999.12
2023-04-28T01:09:01.131Z,999.12
2023-04-28T01:09:33.125Z,999.12
2023-04-28T01:10:05.374Z,999.32
2023-04-28T01:10:36.468Z,999.32
2023-04-28T01:11:09.186Z,999.32
2023-04-28T01:11:35.317Z,999.32
2023-04-28T01:11:57.246Z,999.32
2023-04-28T01:12:30.674Z,999.32
2023-04-28T01:13:01.235Z,999.42
2023-04-28T01:13:33.107Z,999.42
2023-04-28T01:14:06.238Z,999.12
2023-04-28T01:14:35.214Z,999.32
2023-04-28T01:14:54.130Z,999.32
2023-04-28T01:15:25.438Z,999.32
2023-04-28T01:15:42.318Z,999.02
2023-04-28T01:16:13.432Z,999.02
2023-04-28T01:16:36.123Z,999.22
2023-04-28T01:17:02.214Z,999.22
2023-04-28T01:17:33.231Z,999.22
2023-04-28T01:18:05.179Z,999.22
2023-04-28T01:18:35.386Z,999.12
2023-04-28T01:18:53.472Z,999.12
2023-04-28T01:19:26.062Z,999.12
2023-04-28T01:19:43.172Z,999.22
2023-04-28T01:20:13.965Z,999.22
2023-04-28T01:20:35.291Z,999.42
2023-04-28T01:21:02.175Z,999.42
2023-04-28T01:21:43.682Z,999.22
2023-04-28T01:22:05.413Z,999.22
2023-04-28T01:22:36.148Z,999.22
2023-04-28T01:22:53.299Z,999.22
2023-04-28T01:23:27.037Z,999.22
2023-04-28T01:23:43.162Z,999.22
2023-04-28T01:24:13.331Z,999.22
2023-04-28T01:24:36.396Z,999.22
2023-04-28T01:25:02.275Z,999.22
2023-04-28T01:25:34.130Z,999.22
2023-04-28T01:26:05.123Z,999.12
2023-04-28T01:26:35.648Z,999.02
2023-04-28T01:26:53.217Z,999.02
2023-04-28T01:27:25.877Z,999.02
2023-04-28T01:27:43.023Z,999.12
2023-04-28T01:28:13.175Z,999.12
2023-04-28T01:28:35.249Z,999.12
2023-04-28T01:29:01.976Z,999.12
2023-04-28T01:29:33.126Z,999.12
2023-04-28T01:30:05.498Z,999.32
2023-04-28T01:30:35.200Z,999.12
2023-04-28T01:30:54.580Z,999.12
2023-04-28T01:31:25.830Z,999.12
2023-04-28T01:31:43.023Z,999.02
2023-04-28T01:32:13.195Z,999.02
2023-04-28T01:32:35.202Z,999.02
2023-04-28T01:33:01.968Z,999.02
2023-04-28T01:33:33.422Z,999.02
2023-04-28T01:34:05.281Z,999.02
2023-04-28T01:34:36.271Z,999.02
2023-04-28T01:34:53.283Z,999.02
2023-04-28T01:35:26.187Z,999.02
2023-04-28T01:35:43.488Z,999.22
2023-04-28T01:36:13.110Z,999.22
2023-04-28T01:36:37.572Z,999.12
2023-04-28T01:37:01.867Z,999.12
2023-04-28T01:37:33.238Z,999.12
2023-04-28T01:38:05.182Z,998.92
2023-04-28T01:38:35.229Z,999.22
2023-04-28T01:38:53.273Z,999.22
2023-04-28T01:39:25.925Z,999.22
2023-04-28T01:39:43.974Z,999.22
2023-04-28T01:40:13.308Z,999.22
2023-04-28T01:40:35.221Z,999.22
2023-04-28T01:41:01.116Z,999.22
2023-04-28T01:41:33.120Z,999.22
2023-04-28T01:42:05.138Z,999.12
2023-04-28T01:42:35.244Z,999.32
2023-04-28T01:42:53.287Z,999.32
2023-04-28T01:43:25.920Z,999.32
2023-04-28T01:43:43.474Z,999.12
2023-04-28T01:44:13.390Z,999.12
2023-04-28T01:44:35.188Z,999.32
2023-04-28T01:45:02.375Z,999.32
2023-04-28T01:45:34.984Z,999.32
2023-04-28T01:46:05.265Z,999.02
2023-04-28T01:46:35.222Z,999.32
2023-04-28T01:46:53.905Z,999.32
2023-04-28T01:47:25.163Z,999.32
2023-04-28T01:47:42.278Z,999.12
2023-04-28T01:48:14.131Z,999.12
2023-04-28T01:48:36.087Z,999.12
2023-04-28T01:49:01.324Z,999.12
2023-04-28T01:49:33.931Z,999.12
2023-04-28T01:50:05.404Z,999.12
2023-04-28T01:50:37.390Z,999.12
2023-04-28T01:51:09.266Z,999.12
2023-04-28T01:51:36.276Z,999.22
2023-04-28T01:52:13.937Z,999.22
2023-04-28T01:52:35.792Z,999.12
2023-04-28T01:53:01.165Z,999.12
2023-04-28T01:53:33.844Z,999.12
2023-04-28T01:54:05.131Z,999.02
2023-04-28T01:54:35.545Z,999.02
2023-04-28T01:54:54.028Z,999.02
2023-04-28T01:55:25.297Z,999.02
2023-04-28T01:55:42.237Z,999.12
2023-04-28T01:56:14.019Z,999.12
2023-04-28T01:56:35.204Z,999.02
2023-04-28T01:57:01.145Z,999.02
2023-04-28T01:57:33.787Z,999.02
2023-04-28T01:58:05.093Z,999.12
2023-04-28T01:58:36.781Z,999.02
2023-04-28T01:58:54.044Z,999.02
2023-04-28T01:59:25.194Z,999.02
2023-04-28T01:59:42.223Z,999.22
2023-04-28T02:00:15.316Z,999.22
2023-04-28T02:00:35.235Z,999.22
2023-04-28T02:01:01.175Z,999.22
2023-04-28T02:01:33.208Z,999.22
2023-04-28T02:02:05.241Z,999.12
2023-04-28T02:02:35.693Z,998.71
2023-04-28T02:02:53.310Z,998.71
2023-04-28T02:03:26.034Z,998.71
2023-04-28T02:03:43.155Z,999.12
2023-04-28T02:04:13.269Z,999.12
2023-04-28T02:04:35.266Z,998.81
2023-04-28T02:05:02.047Z,998.81
2023-04-28T02:05:33.153Z,998.81
2023-04-28T02:06:05.183Z,998.92
2023-04-28T02:06:35.217Z,998.71
2023-04-28T02:06:53.142Z,998.71
2023-04-28T02:07:25.938Z,998.71
2023-04-28T02:07:43.106Z,998.92
2023-04-28T02:08:13.261Z,998.92
2023-04-28T02:08:35.864Z,999.02
2023-04-28T02:09:01.967Z,999.02
2023-04-28T02:09:33.167Z,999.02
2023-04-28T02:10:05.359Z,998.92
2023-04-28T02:10:35.998Z,999.12
2023-04-28T02:10:53.395Z,999.12
2023-04-28T02:11:25.782Z,999.12
2023-04-28T02:11:42.980Z,998.92
2023-04-28T02:12:13.128Z,998.92
2023-04-28T02:12:35.732Z,998.92
2023-04-28T02:13:01.848Z,998.92
2023-04-28T02:13:33.108Z,998.92
2023-04-28T02:14:05.254Z,998.71
2023-04-28T02:14:35.218Z,998.81
2023-04-28T02:14:53.259Z,998.81
2023-04-28T02:15:26.151Z,998.81
2023-04-28T02:15:43.976Z,998.81
2023-04-28T02:16:13.187Z,998.81
2023-04-28T02:16:35.218Z,998.92
2023-04-28T02:17:01.204Z,998.92
2023-04-28T02:17:33.137Z,998.92
2023-04-28T02:18:05.165Z,999.02
2023-04-28T02:18:36.408Z,998.81
2023-04-28T02:19:08.574Z,998.81
2023-04-28T02:19:25.761Z,998.81
2023-04-28T02:19:42.869Z,998.92
2023-04-28T02:20:13.255Z,998.92
2023-04-28T02:20:35.283Z,998.92
2023-04-28T02:21:01.920Z,998.92
2023-04-28T02:21:33.169Z,998.92
2023-04-28T02:22:05.265Z,998.92
2023-04-28T02:22:35.202Z,998.81
2023-04-28T02:22:53.255Z,998.81
2023-04-28T02:23:25.988Z,998.81
2023-04-28T02:23:43.079Z,998.92
2023-04-28T02:24:13.221Z,998.92
2023-04-28T02:24:35.179Z,998.81
2023-04-28T02:25:02.101Z,998.81
2023-04-28T02:25:33.170Z,998.81
2023-04-28T02:26:05.078Z,998.71
2023-04-28T02:26:35.225Z,998.81
2023-04-28T02:26:53.372Z,998.81
2023-04-28T02:27:25.958Z,998.81
2023-04-28T02:27:42.934Z,998.71
2023-04-28T02:28:13.129Z,998.71
2023-04-28T02:28:35.743Z,998.71
2023-04-28T02:29:01.876Z,998.71
2023-04-28T02:29:33.111Z,998.71
2023-04-28T02:30:05.376Z,998.61
2023-04-28T02:30:35.255Z,998.71
2023-04-28T02:30:53.850Z,998.71
2023-04-28T02:31:25.998Z,998.71
2023-04-28T02:31:43.063Z,998.71
2023-04-28T02:32:13.077Z,998.71
2023-04-28T02:32:35.874Z,998.61
2023-04-28T02:33:02.205Z,998.61
2023-04-28T02:33:33.204Z,998.61
2023-04-28T02:34:05.333Z,998.71
2023-04-28T02:34:36.292Z,998.71
2023-04-28T02:34:53.288Z,998.71
2023-04-28T02:35:26.127Z,998.71
2023-04-28T02:35:43.073Z,998.71
2023-04-28T02:36:13.148Z,998.71
2023-04-28T02:36:35.224Z,998.81
2023-04-28T02:37:01.907Z,998.81
2023-04-28T02:37:33.247Z,998.81
2023-04-28T02:38:05.165Z,998.81
2023-04-28T02:38:35.747Z,998.81
2023-04-28T02:38:53.160Z,998.81
2023-04-28T02:39:25.952Z,998.81
2023-04-28T02:39:43.072Z,998.81
2023-04-28T02:40:13.337Z,998.81
2023-04-28T02:40:35.282Z,998.61
2023-04-28T02:41:01.127Z,998.61
2023-04-28T02:41:33.862Z,998.61
2023-04-28T02:42:05.172Z,998.71
2023-04-28T02:42:35.263Z,998.92
2023-04-28T02:42:53.835Z,998.92
2023-04-28T02:43:25.117Z,998.92
2023-04-28T02:43:42.204Z,998.92
2023-04-28T02:44:14.305Z,998.92
2023-04-28T02:44:35.242Z,998.92
2023-04-28T02:45:02.289Z,998.92
2023-04-28T02:45:34.013Z,998.92
2023-04-28T02:46:05.104Z,998.81
2023-04-28T02:46:35.257Z,998.92
2023-04-28T02:46:53.939Z,998.92
2023-04-28T02:47:25.122Z,998.92
2023-04-28T02:47:42.433Z,998.92
2023-04-28T02:48:14.042Z,998.92
2023-04-28T02:48:36.075Z,998.61
2023-04-28T02:49:01.155Z,998.61
2023-04-28T02:49:33.896Z,998.61
2023-04-28T02:50:05.380Z,998.81
2023-04-28T02:50:38.453Z,998.92
2023-04-28T02:51:09.159Z,998.92
2023-04-28T02:51:35.236Z,998.61
2023-04-28T02:51:57.968Z,998.61
2023-04-28T02:52:30.363Z,998.61
2023-04-28T02:53:01.142Z,998.61
2023-04-28T02:53:33.146Z,998.61
2023-04-28T02:54:05.166Z,998.92
2023-04-28T02:54:35.733Z,998.61
2023-04-28T02:54:53.323Z,998.61
2023-04-28T02:55:26.061Z,998.61
2023-04-28T02:55:44.130Z,998.71
2023-04-28T02:56:14.068Z,998.71
2023-04-28T02:56:35.266Z,998.71
2023-04-28T02:57:01.163Z,998.71
2023-04-28T02:57:33.928Z,998.71
2023-04-28T02:58:05.113Z,998.81
2023-04-28T02:58:35.761Z,998.61
2023-04-28T02:58:53.829Z,998.61
2023-04-28T02:59:25.195Z,998.61
2023-04-28T02:59:42.309Z,998.61
2023-04-28T03:00:14.386Z,998.61
2023-04-28T03:00:35.220Z,998.51
2023-04-28T03:01:01.201Z,998.51
2023-04-28T03:01:34.799Z,998.51
2023-04-28T03:02:05.110Z,998.51
2023-04-28T03:02:35.296Z,998.61
2023-04-28T03:02:54.100Z,998.61
2023-04-28T03:03:25.337Z,998.61
2023-04-28T03:03:44.158Z,998.44
2023-04-28T03:04:14.359Z,998.44
2023-04-28T03:04:35.360Z,998.61
2023-04-28T03:05:01.449Z,998.61
2023-04-28T03:05:33.908Z,998.61
2023-04-28T03:06:05.291Z,998.51
2023-04-28T03:06:35.194Z,998.61
2023-04-28T03:06:53.803Z,998.61
2023-04-28T03:07:25.170Z,998.61
2023-04-28T03:07:42.255Z,998.81
2023-04-28T03:08:14.085Z,998.81
2023-04-28T03:08:35.320Z,998.71
2023-04-28T03:09:01.177Z,998.71
2023-04-28T03:09:33.876Z,998.71
2023-04-28T03:10:05.490Z,998.51
2023-04-28T03:10:35.253Z,998.61
2023-04-28T03:10:54.083Z,998.61
2023-04-28T03:11:25.239Z,998.61
2023-04-28T03:11:42.462Z,998.34
2023-04-28T03:12:14.076Z,998.34
2023-04-28T03:12:35.213Z,998.44
2023-04-28T03:13:01.087Z,998.44
2023-04-28T03:13:33.943Z,998.44
2023-04-28T03:14:05.082Z,998.44
2023-04-28T03:14:35.649Z,998.44
2023-04-28T03:14:53.879Z,998.44
2023-04-28T03:15:25.361Z,998.44
2023-04-28T03:15:42.342Z,998.24
2023-04-28T03:16:13.860Z,998.24
2023-04-28T03:16:35.239Z,998.44
2023-04-28T03:17:01.088Z,998.44
2023-04-28T03:17:34.871Z,998.44
2023-04-28T03:18:05.093Z,998.34
2023-04-28T03:18:35.325Z,998.34
2023-04-28T03:18:53.869Z,998.34
2023-04-28T03:19:25.098Z,998.34
2023-04-28T03:19:43.167Z,998.34
2023-04-28T03:20:14.124Z,998.34
2023-04-28T03:20:35.229Z,998.24
2023-04-28T03:21:01.988Z,998.24
2023-04-28T03:21:33.851Z,998.24
2023-04-28T03:22:05.285Z,998.24
2023-04-28T03:22:35.506Z,998.24
2023-04-28T03:22:54.112Z,998.24
2023-04-28T03:23:25.147Z,998.24
2023-04-28T03:23:43.695Z,998.34
2023-04-28T03:24:14.210Z,998.34
2023-04-28T03:24:35.314Z,998.14
2023-04-28T03:25:01.416Z,998.14
2023-04-28T03:25:33.916Z,998.14
2023-04-28T03:26:05.206Z,998.03
2023-04-28T03:26:35.280Z,998.24
2023-04-28T03:26:54.179Z,998.24
2023-04-28T03:27:25.206Z,998.24
2023-04-28T03:27:43.392Z,998.03
2023-04-28T03:28:14.009Z,998.03
2023-04-28T03:28:35.338Z,997.93
2023-04-28T03:29:01.154Z,997.93
2023-04-28T03:29:33.979Z,997.93
2023-04-28T03:30:05.402Z,997.93
2023-04-28T03:30:35.698Z,997.93
2023-04-28T03:30:54.386Z,997.93
2023-04-28T03:31:25.223Z,997.93
2023-04-28T03:31:42.370Z,997.63
2023-04-28T03:32:14.031Z,997.63
2023-04-28T03:32:35.318Z,998.03
2023-04-28T03:33:01.482Z,998.03
2023-04-28T03:33:33.793Z,998.03
2023-04-28T03:34:05.464Z,997.83
2023-04-28T03:34:35.225Z,997.53
2023-04-28T03:34:53.872Z,997.53
2023-04-28T03:35:25.265Z,997.53
2023-04-28T03:35:43.048Z,997.53
2023-04-28T03:36:14.216Z,997.53
2023-04-28T03:36:35.793Z,997.63
2023-04-28T03:37:01.174Z,997.63
2023-04-28T03:37:33.810Z,997.63
2023-04-28T03:38:05.127Z,997.63
2023-04-28T03:38:35.655Z,997.53
2023-04-28T03:38:54.319Z,997.53
2023-04-28T03:39:25.199Z,997.53
2023-04-28T03:39:42.423Z,997.63
2023-04-28T03:40:14.143Z,997.63
2023-04-28T03:40:35.485Z,997.32
2023-04-28T03:41:01.198Z,997.32
2023-04-28T03:41:33.779Z,997.32
2023-04-28T03:42:05.207Z,997.32
2023-04-28T03:42:35.220Z,997.43
2023-04-28T03:42:53.908Z,997.43
2023-04-28T03:43:25.159Z,997.43
2023-04-28T03:43:42.311Z,997.43
2023-04-28T03:44:13.245Z,997.43
2023-04-28T03:44:35.623Z,997.32
2023-04-28T03:45:02.103Z,997.32
2023-04-28T03:45:33.197Z,997.32
2023-04-28T03:46:05.208Z,997.53
2023-04-28T03:46:35.248Z,997.32
2023-04-28T03:46:53.406Z,997.32
2023-04-28T03:47:25.961Z,997.32
2023-04-28T03:47:43.080Z,997.63
2023-04-28T03:48:13.111Z,997.63
2023-04-28T03:48:35.938Z,997.63
2023-04-28T03:49:01.769Z,997.63
2023-04-28T03:49:33.153Z,997.63
2023-04-28T03:50:05.395Z,997.93
2023-04-28T03:50:35.208Z,998.03
2023-04-28T03:50:53.367Z,998.03
2023-04-28T03:51:25.899Z,998.03
2023-04-28T03:51:43.089Z,997.73
2023-04-28T03:52:13.118Z,997.73
2023-04-28T03:52:35.244Z,997.83
2023-04-28T03:53:01.897Z,997.83
2023-04-28T03:53:33.170Z,997.83
2023-04-28T03:54:05.177Z,997.83
2023-04-28T03:54:35.238Z,997.63
2023-04-28T03:54:53.260Z,997.63
2023-04-28T03:55:26.295Z,997.63
2023-04-28T03:55:43.094Z,997.83
2023-04-28T03:56:13.099Z,997.83
2023-04-28T03:56:35.311Z,997.93
2023-04-28T03:57:01.878Z,997.93
2023-04-28T03:57:33.262Z,997.93
2023-04-28T03:58:05.083Z,997.93
2023-04-28T03:58:35.263Z,997.83
2023-04-28T03:58:53.207Z,997.83
2023-04-28T03:59:25.810Z,997.83
2023-04-28T03:59:42.973Z,997.83
2023-04-28T04:00:13.841Z,997.83
2023-04-28T04:00:35.345Z,997.83
2023-04-28T04:01:01.773Z,997.83
2023-04-28T04:01:33.148Z,997.83
2023-04-28T04:02:05.839Z,997.83
2023-04-28T04:02:35.588Z,997.63
2023-04-28T04:02:53.481Z,997.63
2023-04-28T04:03:26.220Z,997.63
2023-04-28T04:03:43.305Z,997.73
2023-04-28T04:04:13.438Z,997.73
2023-04-28T04:04:35.999Z,998.03
2023-04-28T04:05:01.534Z,998.03
2023-04-28T04:05:34.808Z,998.03
2023-04-28T04:06:05.110Z,998.14
2023-04-28T04:06:35.652Z,997.93
2023-04-28T04:06:53.888Z,997.93
2023-04-28T04:07:25.201Z,997.93
2023-04-28T04:07:43.269Z,998.03
2023-04-28T04:08:13.964Z,998.03
2023-04-28T04:08:35.231Z,997.93
2023-04-28T04:09:01.181Z,997.93
2023-04-28T04:09:33.097Z,997.93
2023-04-28T04:10:05.314Z,998.03
2023-04-28T04:10:35.247Z,998.03
2023-04-28T04:10:53.864Z,998.03
2023-04-28T04:11:25.809Z,998.03
2023-04-28T04:11:42.902Z,997.93
2023-04-28T04:12:13.202Z,997.93
2023-04-28T04:12:35.251Z,998.03
2023-04-28T04:13:01.909Z,998.03
2023-04-28T04:13:33.993Z,998.03
2023-04-28T04:14:05.108Z,998.03
2023-04-28T04:14:35.347Z,998.03
2023-04-28T04:14:54.558Z,998.03
2023-04-28T04:15:26.217Z,998.03
2023-04-28T04:15:44.256Z,997.93
2023-04-28T04:16:13.176Z,997.93
2023-04-28T04:16:35.257Z,997.93
2023-04-28T04:17:01.854Z,997.93
2023-04-28T04:17:33.210Z,997.93
2023-04-28T04:18:06.213Z,997.83
2023-04-28T04:18:35.243Z,998.24
2023-04-28T04:18:53.216Z,998.24
2023-04-28T04:19:25.791Z,998.24
2023-04-28T04:19:42.834Z,997.93
2023-04-28T04:20:13.221Z,997.93
2023-04-28T04:20:35.268Z,997.93
2023-04-28T04:21:01.895Z,997.93
2023-04-28T04:21:33.159Z,997.93
2023-04-28T04:22:05.754Z,998.03
2023-04-28T04:22:35.278Z,998.14
2023-04-28T04:22:53.262Z,998.14
2023-04-28T04:23:25.965Z,998.14
2023-04-28T04:23:43.001Z,998.14
2023-04-28T04:24:13.100Z,998.14
2023-04-28T04:24:35.266Z,998.03
2023-04-28T04:25:02.018Z,998.03
2023-04-28T04:25:33.150Z,998.03
2023-04-28T04:26:05.205Z,998.03
2023-04-28T04:26:35.286Z,998.03
2023-04-28T04:26:53.516Z,998.03
2023-04-28T04:27:25.868Z,998.03
2023-04-28T04:27:42.903Z,998.14
2023-04-28T04:28:13.117Z,998.14
2023-04-28T04:28:35.220Z,998.14
2023-04-28T04:29:01.843Z,998.14
2023-04-28T04:29:33.097Z,998.14
2023-04-28T04:30:05.357Z,998.03
2023-04-28T04:30:35.556Z,997.93
2023-04-28T04:30:53.466Z,997.93
2023-04-28T04:31:26.386Z,997.93
2023-04-28T04:31:44.922Z,997.93
2023-04-28T04:32:13.078Z,997.93
2023-04-28T04:32:35.285Z,997.83
2023-04-28T04:33:01.478Z,997.83
2023-04-28T04:33:34.193Z,997.83
2023-04-28T04:34:05.757Z,998.14
2023-04-28T04:34:35.240Z,998.14
2023-04-28T04:34:53.340Z,998.14
2023-04-28T04:35:26.153Z,998.14
2023-04-28T04:35:43.110Z,997.73
2023-04-28T04:36:13.079Z,997.73
2023-04-28T04:36:35.564Z,997.93
2023-04-28T04:37:01.920Z,997.93
2023-04-28T04:37:33.276Z,997.93
2023-04-28T04:38:05.340Z,997.83
2023-04-28T04:38:35.894Z,997.83
2023-04-28T04:38:54.707Z,997.83
2023-04-28T04:39:26.040Z,997.83
2023-04-28T04:39:43.264Z,997.93
2023-04-28T04:40:13.239Z,997.93
2023-04-28T04:40:35.425Z,997.93
2023-04-28T04:41:01.249Z,997.93
2023-04-28T04:41:34.042Z,997.93
2023-04-28T04:42:22.665Z,998.03
2023-04-28T04:42:35.889Z,997.83
2023-04-28T04:42:54.016Z,997.83
2023-04-28T04:43:25.319Z,997.83
2023-04-28T04:43:42.482Z,998.03
2023-04-28T04:44:14.337Z,998.03
2023-04-28T04:44:35.340Z,997.93
2023-04-28T04:45:02.231Z,997.93
2023-04-28T04:45:33.258Z,997.93
2023-04-28T04:46:05.305Z,997.73
2023-04-28T04:46:35.420Z,997.93
2023-04-28T04:46:54.861Z,997.93
2023-04-28T04:47:26.015Z,997.93
2023-04-28T04:47:43.106Z,997.73
2023-04-28T04:48:13.397Z,997.73
2023-04-28T04:48:35.342Z,997.73
2023-04-28T04:49:01.924Z,997.73
2023-04-28T04:49:33.323Z,997.73
2023-04-28T04:50:05.416Z,997.93
2023-04-28T04:50:35.503Z,997.93
2023-04-28T04:50:53.647Z,997.93
2023-04-28T04:51:25.886Z,997.93
2023-04-28T04:51:43.109Z,997.93
2023-04-28T04:52:13.182Z,997.93
2023-04-28T04:52:35.816Z,997.83
2023-04-28T04:53:01.970Z,997.83
2023-04-28T04:53:33.729Z,997.83
2023-04-28T04:54:05.287Z,997.83
2023-04-28T04:54:35.450Z,997.83
2023-04-28T04:54:53.522Z,997.83
2023-04-28T04:55:26.166Z,997.83
2023-04-28T04:55:43.131Z,997.73
2023-04-28T04:56:13.271Z,997.73
2023-04-28T04:56:35.426Z,997.73
2023-04-28T04:57:02.574Z,997.73
2023-04-28T04:57:33.253Z,997.73
2023-04-28T04:58:05.238Z,997.83
2023-04-28T04:58:35.446Z,997.63
2023-04-28T04:58:54.117Z,997.63
2023-04-28T04:59:26.060Z,997.63
2023-04-28T04:59:43.130Z,997.63
2023-04-28T05:00:13.777Z,997.63
2023-04-28T05:00:35.453Z,997.73
2023-04-28T05:01:01.986Z,997.73
2023-04-28T05:01:33.343Z,997.73
2023-04-28T05:02:05.518Z,997.63
2023-04-28T05:02:35.876Z,997.93
2023-04-28T05:02:53.555Z,997.93
2023-04-28T05:03:26.063Z,997.93
2023-04-28T05:03:43.505Z,997.93
2023-04-28T05:04:13.409Z,997.93
2023-04-28T05:04:36.003Z,997.63
2023-04-28T05:05:16.789Z,997.63
2023-04-28T05:05:33.370Z,997.63
2023-04-28T05:06:05.267Z,997.93
2023-04-28T05:06:35.455Z,997.73
2023-04-28T05:06:53.395Z,997.73
2023-04-28T05:07:26.046Z,997.73
2023-04-28T05:07:43.097Z,997.63
2023-04-28T05:08:13.200Z,997.63
2023-04-28T05:08:35.399Z,997.63
2023-04-28T05:09:02.069Z,997.63
2023-04-28T05:09:33.240Z,997.63
2023-04-28T05:10:05.465Z,997.73
2023-04-28T05:10:35.496Z,997.63
2023-04-28T05:10:53.799Z,997.63
2023-04-28T05:11:25.910Z,997.63
2023-04-28T05:11:43.076Z,997.73
2023-04-28T05:12:13.201Z,997.73
2023-04-28T05:12:35.378Z,997.73
2023-04-28T05:13:02.024Z,997.73
2023-04-28T05:13:33.254Z,997.73
2023-04-28T05:14:05.291Z,997.53
2023-04-28T05:14:35.717Z,997.73
2023-04-28T05:14:53.550Z,997.73
2023-04-28T05:15:26.342Z,997.73
2023-04-28T05:15:43.375Z,997.53
2023-04-28T05:16:13.293Z,997.53
2023-04-28T05:16:35.478Z,997.83
2023-04-28T05:17:02.010Z,997.83
2023-04-28T05:17:33.218Z,997.83
2023-04-28T05:18:06.189Z,997.53
2023-04-28T05:18:35.379Z,997.83
2023-04-28T05:18:53.505Z,997.83
2023-04-28T05:19:26.050Z,997.83
2023-04-28T05:19:57.303Z,997.53
2023-04-28T05:20:30.285Z,997.53
2023-04-28T05:21:01.284Z,997.43
2023-04-28T05:21:33.294Z,997.43
2023-04-28T05:22:05.421Z,997.53
2023-04-28T05:22:35.862Z,997.43
2023-04-28T05:22:53.977Z,997.43
2023-04-28T05:23:25.248Z,997.43
2023-04-28T05:23:42.495Z,997.73
2023-04-28T05:24:14.130Z,997.73
2023-04-28T05:24:35.376Z,997.63
2023-04-28T05:25:01.465Z,997.63
2023-04-28T05:25:34.694Z,997.63
2023-04-28T05:26:05.250Z,997.43
2023-04-28T05:26:36.101Z,997.53
2023-04-28T05:26:54.094Z,997.53
2023-04-28T05:27:25.224Z,997.53
2023-04-28T05:27:42.566Z,997.43
2023-04-28T05:28:14.057Z,997.43
2023-04-28T05:28:35.363Z,997.43
2023-04-28T05:29:01.269Z,997.43
2023-04-28T05:29:33.925Z,997.43
2023-04-28T05:30:05.591Z,997.43
2023-04-28T05:30:35.721Z,997.63
2023-04-28T05:30:55.449Z,997.63
2023-04-28T05:31:25.550Z,997.63
2023-04-28T05:31:42.565Z,997.43
2023-04-28T05:32:14.139Z,997.43
2023-04-28T05:32:35.463Z,997.43
2023-04-28T05:33:01.690Z,997.43
2023-04-28T05:33:34.008Z,997.43
2023-04-28T05:34:05.454Z,997.63
2023-04-28T05:34:35.419Z,997.63
2023-04-28T05:34:53.946Z,997.63
2023-04-28T05:35:25.407Z,997.63